createdAt,value
2018-08-13T00:01:38.677Z,24.75
2018-08-13T00:04:06.381Z,24.67
2018-08-13T00:06:34.097Z,24.72
2018-08-13T00:09:01.765Z,24.80
2018-08-13T00:11:29.477Z,24.68
2018-08-13T00:13:57.181Z,24.63
2018-08-13T00:16:24.873Z,24.66
2018-08-13T00:18:52.550Z,24.68
2018-08-13T00:21:20.246Z,24.54
2018-08-13T00:23:47.917Z,24.51
2018-08-13T00:26:15.608Z,24.41
2018-08-13T00:28:43.277Z,24.37
2018-08-13T00:31:11.003Z,24.41
2018-08-13T00:33:38.677Z,24.37
2018-08-13T00:36:06.497Z,24.42
2018-08-13T00:38:34.154Z,24.39
2018-08-13T00:41:01.853Z,24.40
2018-08-13T00:43:29.529Z,24.28
2018-08-13T00:45:57.245Z,24.26
2018-08-13T00:48:24.950Z,24.27
2018-08-13T00:50:56.089Z,24.19
2018-08-13T00:53:23.809Z,24.15
2018-08-13T00:55:51.498Z,24.09
2018-08-13T00:58:19.177Z,24.14
2018-08-13T01:00:46.837Z,24.14
2018-08-13T01:03:14.546Z,24.16
2018-08-13T01:05:42.254Z,24.10
2018-08-13T01:08:09.953Z,24.06
2018-08-13T01:10:37.660Z,24.03
2018-08-13T01:13:06.369Z,24.06
2018-08-13T01:15:34.077Z,24.06
2018-08-13T01:18:08.480Z,24.00
2018-08-13T01:20:36.161Z,24.01
2018-08-13T01:23:03.871Z,24.05
2018-08-13T01:25:31.577Z,23.99
2018-08-13T01:27:59.357Z,23.97
2018-08-13T01:30:27.094Z,23.93
2018-08-13T01:32:54.741Z,23.88
2018-08-13T01:35:22.404Z,23.88
2018-08-13T01:37:50.060Z,23.87
2018-08-13T01:40:17.729Z,23.88
2018-08-13T01:42:45.394Z,23.84
2018-08-13T01:45:13.364Z,23.75
2018-08-13T01:47:41.721Z,23.74
2018-08-13T01:50:11.104Z,23.65
2018-08-13T01:52:38.936Z,23.72
2018-08-13T01:55:08.305Z,23.67
2018-08-13T01:57:36.013Z,23.63
2018-08-13T02:00:08.631Z,23.59
2018-08-13T02:02:36.317Z,23.66
2018-08-13T02:05:05.012Z,23.60
2018-08-13T02:07:36.225Z,23.59
2018-08-13T02:10:05.409Z,23.64
2018-08-13T02:12:33.421Z,23.61
2018-08-13T02:15:01.109Z,23.68
2018-08-13T02:17:28.788Z,23.60
2018-08-13T02:19:56.473Z,23.59
2018-08-13T02:22:24.151Z,23.59
2018-08-13T02:24:52.023Z,23.54
2018-08-13T02:27:19.677Z,23.58
2018-08-13T02:29:47.333Z,23.35
2018-08-13T02:32:15.013Z,23.19
2018-08-13T02:34:42.670Z,23.22
2018-08-13T02:37:10.373Z,23.24
2018-08-13T02:39:38.098Z,23.24
2018-08-13T02:42:05.774Z,23.17
2018-08-13T02:44:33.683Z,23.12
2018-08-13T02:47:01.673Z,23.11
2018-08-13T02:49:29.455Z,23.21
2018-08-13T02:51:57.203Z,23.11
2018-08-13T02:54:25.236Z,23.06
2018-08-13T02:56:53.002Z,23.04
2018-08-13T02:59:20.720Z,23.04
2018-08-13T03:01:48.486Z,23.09
2018-08-13T03:04:16.318Z,23.21
2018-08-13T03:06:44.093Z,23.29
2018-08-13T03:09:12.565Z,23.27
2018-08-13T03:11:40.311Z,23.27
2018-08-13T03:14:08.093Z,23.08
2018-08-13T03:16:35.824Z,23.04
2018-08-13T03:19:04.357Z,23.05
2018-08-13T03:21:32.090Z,23.06
2018-08-13T03:23:59.943Z,23.17
2018-08-13T03:26:27.775Z,23.09
2018-08-13T03:28:55.508Z,23.10
2018-08-13T03:31:23.285Z,23.19
2018-08-13T03:33:50.958Z,23.09
2018-08-13T03:36:18.646Z,23.15
2018-08-13T03:38:46.386Z,23.11
2018-08-13T03:41:14.116Z,23.05
2018-08-13T03:43:41.894Z,23.07
2018-08-13T03:46:09.625Z,23.10
2018-08-13T03:48:37.337Z,23.02
2018-08-13T03:51:05.248Z,23.02
2018-08-13T03:53:33.042Z,23.09
2018-08-13T03:56:01.155Z,23.11
2018-08-13T03:58:28.961Z,23.31
2018-08-13T04:00:56.743Z,23.25
2018-08-13T04:03:24.479Z,23.06
2018-08-13T04:05:52.264Z,23.08
2018-08-13T04:08:20.154Z,22.97
2018-08-13T04:10:47.887Z,22.86
2018-08-13T04:13:15.642Z,22.78
2018-08-13T04:15:43.791Z,22.79
2018-08-13T04:18:11.521Z,22.81
2018-08-13T04:20:41.524Z,22.84
2018-08-13T04:23:09.440Z,22.80
2018-08-13T04:25:37.130Z,22.83
2018-08-13T04:28:05.704Z,22.82
2018-08-13T04:30:34.102Z,22.70
2018-08-13T04:33:01.831Z,22.74
2018-08-13T04:35:29.645Z,22.69
2018-08-13T04:37:57.366Z,22.67
2018-08-13T04:40:25.198Z,22.75
2018-08-13T04:42:52.986Z,22.79
2018-08-13T04:45:20.717Z,22.70
2018-08-13T04:47:51.441Z,22.76
2018-08-13T04:50:19.314Z,22.73
2018-08-13T04:52:47.511Z,22.75
2018-08-13T04:55:15.451Z,22.77
2018-08-13T04:57:43.290Z,22.85
2018-08-13T05:00:11.110Z,22.99
2018-08-13T05:02:39.494Z,23.09
2018-08-13T05:05:08.554Z,23.02
2018-08-13T05:07:36.530Z,23.03
2018-08-13T05:10:05.586Z,23.07
2018-08-13T05:12:33.348Z,23.26
2018-08-13T05:15:01.115Z,23.25
2018-08-13T05:17:28.834Z,23.22
2018-08-13T05:19:56.642Z,23.22
2018-08-13T05:22:24.450Z,23.28
2018-08-13T05:24:52.246Z,23.33
2018-08-13T05:27:20.040Z,23.36
2018-08-13T05:29:47.801Z,23.47
2018-08-13T05:32:15.499Z,23.52
2018-08-13T05:34:43.314Z,23.50
2018-08-13T05:37:11.101Z,23.47
2018-08-13T05:39:38.836Z,23.45
2018-08-13T05:42:06.570Z,23.38
2018-08-13T05:44:34.643Z,23.23
2018-08-13T05:47:02.495Z,23.15
2018-08-13T05:49:30.227Z,23.10
2018-08-13T05:51:57.981Z,23.07
2018-08-13T05:54:26.516Z,23.20
2018-08-13T05:56:54.201Z,23.27
2018-08-13T05:59:21.939Z,23.34
2018-08-13T06:01:49.624Z,23.27
2018-08-13T06:04:17.386Z,23.26
2018-08-13T06:06:45.438Z,23.27
2018-08-13T06:09:13.176Z,23.30
2018-08-13T06:11:41.022Z,23.30
2018-08-13T06:14:08.718Z,23.30
2018-08-13T06:16:36.945Z,23.38
2018-08-13T06:19:05.389Z,23.43
2018-08-13T06:21:33.103Z,23.46
2018-08-13T06:24:00.900Z,23.46
2018-08-13T06:26:28.619Z,23.48
2018-08-13T06:28:56.308Z,23.43
2018-08-13T06:31:24.051Z,23.41
2018-08-13T06:33:51.859Z,23.33
2018-08-13T06:36:19.605Z,23.34
2018-08-13T06:38:47.382Z,23.38
2018-08-13T06:41:19.032Z,23.32
2018-08-13T06:43:47.135Z,23.31
2018-08-13T06:46:14.822Z,23.32
2018-08-13T06:48:42.508Z,23.33
2018-08-13T06:51:10.245Z,23.21
2018-08-13T06:53:39.081Z,23.15
2018-08-13T06:56:07.258Z,23.10
2018-08-13T06:58:35.017Z,23.09
2018-08-13T07:01:03.006Z,23.09
2018-08-13T07:03:30.997Z,23.01
2018-08-13T07:05:58.724Z,22.99
2018-08-13T07:08:26.474Z,23.03
2018-08-13T07:10:54.191Z,23.05
2018-08-13T07:13:21.942Z,23.15
2018-08-13T07:15:49.673Z,23.08
2018-08-13T07:18:17.414Z,23.09
2018-08-13T07:20:45.159Z,23.23
2018-08-13T07:23:12.907Z,23.24
2018-08-13T07:25:40.700Z,23.12
2018-08-13T07:28:08.409Z,23.04
2018-08-13T07:30:36.374Z,23.07
2018-08-13T07:33:04.214Z,23.11
2018-08-13T07:35:31.980Z,23.10
2018-08-13T07:37:59.793Z,23.19
2018-08-13T07:40:27.592Z,23.22
2018-08-13T07:42:55.347Z,23.27
2018-08-13T07:45:23.035Z,23.21
2018-08-13T07:47:50.790Z,23.10
2018-08-13T07:50:18.520Z,23.20
2018-08-13T07:52:46.217Z,23.35
2018-08-13T07:55:13.998Z,23.26
2018-08-13T07:57:41.738Z,23.26
2018-08-13T08:00:12.995Z,23.26
2018-08-13T08:02:40.690Z,23.30
2018-08-13T08:07:35.992Z,23.28
2018-08-13T08:10:07.076Z,23.28
2018-08-13T08:12:34.881Z,23.33
2018-08-13T08:15:02.950Z,23.37
2018-08-13T08:17:30.661Z,23.28
2018-08-13T08:19:58.378Z,23.24
2018-08-13T08:22:29.911Z,23.24
2018-08-13T08:24:57.659Z,23.22
2018-08-13T08:27:25.737Z,23.27
2018-08-13T08:29:53.570Z,23.05
2018-08-13T08:32:21.324Z,23.06
2018-08-13T08:34:49.117Z,22.98
2018-08-13T08:37:16.865Z,23.09
2018-08-13T08:39:44.566Z,23.06
2018-08-13T08:42:12.305Z,23.04
2018-08-13T08:44:39.985Z,23.10
2018-08-13T08:47:07.660Z,23.16
2018-08-13T08:49:35.345Z,23.10
2018-08-13T08:52:03.022Z,23.18
2018-08-13T08:54:30.692Z,23.12
2018-08-13T08:56:58.349Z,23.04
2018-08-13T08:59:26.042Z,23.11
2018-08-13T09:01:53.716Z,23.13
2018-08-13T09:04:21.383Z,23.15
2018-08-13T09:06:49.065Z,23.21
2018-08-13T09:09:16.717Z,23.03
2018-08-13T09:11:44.393Z,23.10
2018-08-13T09:14:12.299Z,23.20
2018-08-13T09:16:43.993Z,23.11
2018-08-13T09:19:29.051Z,23.10
2018-08-13T09:23:16.802Z,23.11
2018-08-13T09:28:40.685Z,23.02
2018-08-13T09:31:31.220Z,23.09
2018-08-13T09:34:18.662Z,23.12
2018-08-13T09:36:46.433Z,23.09
2018-08-13T09:39:14.034Z,23.06
2018-08-13T09:41:41.728Z,23.12
2018-08-13T09:44:09.397Z,23.12
2018-08-13T09:46:37.642Z,23.16
2018-08-13T09:49:05.799Z,23.13
2018-08-13T09:51:34.199Z,23.15
2018-08-13T09:54:02.065Z,23.09
2018-08-13T09:56:29.820Z,23.10
2018-08-13T09:58:58.445Z,23.14
2018-08-13T10:01:26.125Z,23.19
2018-08-13T10:03:53.795Z,23.14
2018-08-13T10:06:21.497Z,23.11
2018-08-13T10:08:49.173Z,23.35
2018-08-13T10:11:16.837Z,23.35
2018-08-13T10:13:44.474Z,23.28
2018-08-13T10:16:13.330Z,23.32
2018-08-13T10:18:40.994Z,23.30
2018-08-13T10:21:08.654Z,23.29
2018-08-13T10:23:36.349Z,23.32
2018-08-13T10:26:04.070Z,23.33
2018-08-13T10:28:31.749Z,23.40
2018-08-13T10:30:59.426Z,23.46
2018-08-13T10:33:27.101Z,23.45
2018-08-13T10:35:54.761Z,23.56
2018-08-13T10:38:22.449Z,23.54
2018-08-13T10:40:50.089Z,23.46
2018-08-13T10:43:17.846Z,23.59
2018-08-13T10:45:45.485Z,23.54
2018-08-13T10:48:13.197Z,23.48
2018-08-13T10:50:40.890Z,23.45
2018-08-13T10:53:08.574Z,23.40
2018-08-13T10:55:36.313Z,23.40
2018-08-13T10:58:04.176Z,23.42
2018-08-13T11:00:31.829Z,23.41
2018-08-13T11:02:59.625Z,23.42
2018-08-13T11:05:27.266Z,23.46
2018-08-13T11:07:55.015Z,23.47
2018-08-13T11:10:22.788Z,23.45
2018-08-13T11:12:51.448Z,23.57
2018-08-13T11:15:19.594Z,23.57
2018-08-13T11:17:47.266Z,23.61
2018-08-13T11:20:15.485Z,23.64
2018-08-13T11:22:43.309Z,23.68
2018-08-13T11:25:13.196Z,23.86
2018-08-13T11:27:40.948Z,23.91
2018-08-13T11:30:12.232Z,23.98
2018-08-13T11:32:40.106Z,23.99
2018-08-13T11:35:07.867Z,24.01
2018-08-13T11:37:35.875Z,23.94
2018-08-13T11:40:08.277Z,23.90
2018-08-13T11:42:36.077Z,23.93
2018-08-13T11:45:03.776Z,23.86
2018-08-13T11:47:31.428Z,23.90
2018-08-13T11:49:59.165Z,23.91
2018-08-13T11:52:30.074Z,23.91
2018-08-13T11:54:57.685Z,23.97
2018-08-13T11:57:25.352Z,24.04
2018-08-13T11:59:53.026Z,24.10
2018-08-13T12:02:20.726Z,24.15
2018-08-13T12:04:48.376Z,24.18
2018-08-13T12:07:16.016Z,24.18
2018-08-13T12:09:43.659Z,24.13
2018-08-13T12:12:11.633Z,24.09
2018-08-13T12:14:39.515Z,24.02
2018-08-13T12:17:07.234Z,24.03
2018-08-13T12:19:35.056Z,24.06
2018-08-13T12:22:02.676Z,24.08
2018-08-13T12:24:30.346Z,23.98
2018-08-13T12:26:58.005Z,24.06
2018-08-13T12:29:25.660Z,24.15
2018-08-13T12:31:53.294Z,24.12
2018-08-13T12:34:21.087Z,24.02
2018-08-13T12:36:52.576Z,23.72
2018-08-13T12:39:20.254Z,22.65
2018-08-13T12:41:47.913Z,22.36
2018-08-13T12:44:15.573Z,22.63
2018-08-13T12:46:43.224Z,22.92
2018-08-13T12:49:10.874Z,23.01
2018-08-13T12:51:38.592Z,23.09
2018-08-13T12:54:06.425Z,23.12
2018-08-13T12:56:34.080Z,23.12
2018-08-13T12:59:01.901Z,23.05
2018-08-13T13:01:29.641Z,23.13
2018-08-13T13:03:57.358Z,23.23
2018-08-13T13:06:25.025Z,23.28
2018-08-13T13:08:52.740Z,23.28
2018-08-13T13:11:20.488Z,23.36
2018-08-13T13:13:48.176Z,23.46
2018-08-13T13:16:15.939Z,23.50
2018-08-13T13:18:43.605Z,23.66
2018-08-13T13:21:11.368Z,23.66
2018-08-13T13:23:39.054Z,23.76
2018-08-13T13:26:06.913Z,23.76
2018-08-13T13:28:38.605Z,23.74
2018-08-13T13:31:06.252Z,23.83
2018-08-13T13:33:34.043Z,23.83
2018-08-13T13:36:01.722Z,23.83
2018-08-13T13:38:29.400Z,23.97
2018-08-13T13:40:57.185Z,24.11
2018-08-13T13:43:24.864Z,24.06
2018-08-13T13:45:53.528Z,24.04
2018-08-13T13:48:21.712Z,23.96
2018-08-13T13:50:49.370Z,23.96
2018-08-13T13:53:17.133Z,23.99
2018-08-13T13:55:44.946Z,24.04
2018-08-13T13:58:12.709Z,24.03
2018-08-13T14:00:57.954Z,24.13
2018-08-13T14:03:25.694Z,24.13
2018-08-13T14:05:59.538Z,23.91
2018-08-13T14:08:27.274Z,23.92
2018-08-13T14:10:54.938Z,23.90
2018-08-13T14:13:22.697Z,23.89
2018-08-13T14:15:50.487Z,23.89
2018-08-13T14:18:18.250Z,23.92
2018-08-13T14:20:45.914Z,23.93
2018-08-13T14:23:13.694Z,23.87
2018-08-13T14:25:41.353Z,23.83
2018-08-13T14:28:09.079Z,23.84
2018-08-13T14:30:36.776Z,23.80
2018-08-13T14:33:05.165Z,23.83
2018-08-13T14:35:32.893Z,23.89
2018-08-13T14:38:00.746Z,23.87
2018-08-13T14:40:28.467Z,23.87
2018-08-13T14:42:56.130Z,23.93
2018-08-13T14:45:23.910Z,23.92
2018-08-13T14:47:52.002Z,23.96
2018-08-13T14:50:19.705Z,23.94
2018-08-13T14:52:51.204Z,23.89
2018-08-13T14:55:20.697Z,24.05
2018-08-13T14:57:48.345Z,23.91
2018-08-13T15:00:25.598Z,23.89
2018-08-13T15:02:54.284Z,24.02
2018-08-13T15:05:21.960Z,24.04
2018-08-13T15:07:49.796Z,24.10
2018-08-13T15:10:19.993Z,24.12
2018-08-13T15:12:47.720Z,24.10
2018-08-13T15:15:15.309Z,24.09
2018-08-13T15:17:42.965Z,24.10
2018-08-13T15:20:24.693Z,24.12
2018-08-13T15:22:52.645Z,24.08
2018-08-13T15:25:20.485Z,24.14
2018-08-13T15:27:48.279Z,24.08
2018-08-13T15:30:17.017Z,24.02
2018-08-13T15:32:45.756Z,24.04
2018-08-13T15:35:13.518Z,24.07
2018-08-13T15:37:41.547Z,23.97
2018-08-13T15:40:09.681Z,24.04
2018-08-13T15:42:37.664Z,24.08
2018-08-13T15:45:08.868Z,24.03
2018-08-13T15:47:36.654Z,24.07
2018-08-13T15:50:04.854Z,24.04
2018-08-13T15:52:32.662Z,23.99
2018-08-13T15:55:04.007Z,23.99
2018-08-13T15:57:31.670Z,24.08
2018-08-13T15:59:59.444Z,24.10
2018-08-13T16:02:27.174Z,24.01
2018-08-13T16:04:55.092Z,23.97
2018-08-13T16:07:22.786Z,23.99
2018-08-13T16:09:50.725Z,23.97
2018-08-13T16:12:18.436Z,23.92
2018-08-13T16:14:46.206Z,24.00
2018-08-13T16:17:14.085Z,24.00
2018-08-13T16:19:41.755Z,23.93
2018-08-13T16:22:09.393Z,23.95
2018-08-13T16:24:37.158Z,24.01
2018-08-13T16:27:04.837Z,23.96
2018-08-13T16:29:32.516Z,23.90
2018-08-13T16:32:00.392Z,23.87
2018-08-13T16:34:28.077Z,23.82
2018-08-13T16:36:55.857Z,23.81
2018-08-13T16:39:23.665Z,23.89
2018-08-13T16:41:51.356Z,24.00
2018-08-13T16:44:19.411Z,23.97
2018-08-13T16:46:47.162Z,23.96
2018-08-13T16:49:15.425Z,24.05
2018-08-13T16:51:43.090Z,24.06
2018-08-13T16:54:10.790Z,24.12
2018-08-13T16:56:38.594Z,24.07
2018-08-13T16:59:06.250Z,24.02
2018-08-13T17:01:33.893Z,24.02
2018-08-13T17:04:01.876Z,24.04
2018-08-13T17:06:29.615Z,24.03
2018-08-13T17:08:57.683Z,24.05
2018-08-13T17:11:30.006Z,24.03
2018-08-13T17:13:57.814Z,24.02
2018-08-13T17:16:25.458Z,24.01
2018-08-13T17:18:53.170Z,23.97
2018-08-13T17:21:20.861Z,23.91
2018-08-13T17:23:48.901Z,23.94
2018-08-13T17:26:20.635Z,23.95
2018-08-13T17:31:55.273Z,23.92
2018-08-13T17:34:23.267Z,23.95
2018-08-13T17:36:51.178Z,23.93
2018-08-13T17:39:18.937Z,23.91
2018-08-13T17:41:46.750Z,23.86
2018-08-13T17:44:14.538Z,23.86
2018-08-13T17:46:42.727Z,23.86
2018-08-13T17:49:10.542Z,23.84
2018-08-13T17:51:38.382Z,23.80
2018-08-13T17:54:06.538Z,23.79
2018-08-13T17:56:34.331Z,23.81
2018-08-13T17:59:02.493Z,23.85
2018-08-13T18:01:30.325Z,23.87
2018-08-13T18:03:58.070Z,23.87
2018-08-13T18:06:25.886Z,23.91
2018-08-13T18:08:53.666Z,23.88
2018-08-13T18:11:21.403Z,23.86
2018-08-13T18:13:49.122Z,23.87
2018-08-13T18:16:17.022Z,23.86
2018-08-13T18:18:44.755Z,23.80
2018-08-13T18:21:12.530Z,23.80
2018-08-13T18:23:40.367Z,23.83
2018-08-13T18:26:08.502Z,23.81
2018-08-13T18:28:39.712Z,23.78
2018-08-13T18:31:08.145Z,23.77
2018-08-13T18:33:36.194Z,23.75
2018-08-13T18:36:04.110Z,23.72
2018-08-13T18:38:31.934Z,23.70
2018-08-13T18:40:59.894Z,23.69
2018-08-13T18:43:27.802Z,23.68
2018-08-13T18:45:55.530Z,23.63
2018-08-13T18:48:23.330Z,23.59
2018-08-13T18:50:51.098Z,23.60
2018-08-13T18:53:18.899Z,23.61
2018-08-13T18:55:46.638Z,23.60
2018-08-13T18:58:14.442Z,23.61
2018-08-13T19:00:44.728Z,23.58
2018-08-13T19:03:12.527Z,23.59
2018-08-13T19:05:40.223Z,23.56
2018-08-13T19:08:08.050Z,23.56
2018-08-13T19:10:35.819Z,23.56
2018-08-13T19:13:03.610Z,23.54
2018-08-13T19:15:31.302Z,23.53
2018-08-13T19:17:59.186Z,23.49
2018-08-13T19:20:33.126Z,23.51
2018-08-13T19:23:02.311Z,23.50
2018-08-13T19:25:30.455Z,23.47
2018-08-13T19:27:58.354Z,23.45
2018-08-13T19:30:26.414Z,23.40
2018-08-13T19:32:54.641Z,23.42
2018-08-13T19:35:22.351Z,23.42
2018-08-13T19:37:51.160Z,23.43
2018-08-13T19:40:22.619Z,23.26
2018-08-13T19:42:51.391Z,23.25
2018-08-13T19:45:19.883Z,23.25
2018-08-13T19:47:48.667Z,23.26
2018-08-13T19:50:16.646Z,23.25
2018-08-13T19:52:46.779Z,23.20
2018-08-13T19:55:14.856Z,23.19
2018-08-13T19:57:42.782Z,23.18
2018-08-13T20:00:17.393Z,23.07
2018-08-13T20:02:46.908Z,23.07
2018-08-13T20:05:14.746Z,23.13
2018-08-13T20:07:42.930Z,23.08
2018-08-13T20:10:12.447Z,23.08
2018-08-13T20:12:40.750Z,23.08
2018-08-13T20:15:08.998Z,23.14
2018-08-13T20:17:36.894Z,23.20
2018-08-13T20:20:09.256Z,23.07
2018-08-13T20:22:37.090Z,22.98
2018-08-13T20:25:05.691Z,22.97
2018-08-13T20:27:33.683Z,22.94
2018-08-13T20:30:01.627Z,22.92
2018-08-13T20:32:29.414Z,22.94
2018-08-13T20:34:57.364Z,22.95
2018-08-13T20:37:26.402Z,22.94
2018-08-13T20:39:54.196Z,22.94
2018-08-13T20:42:22.338Z,22.90
2018-08-13T20:44:51.442Z,22.90
2018-08-13T20:47:19.442Z,22.81
2018-08-13T20:49:47.378Z,22.74
2018-08-13T20:52:15.278Z,22.70
2018-08-13T20:54:45.024Z,22.67
2018-08-13T20:57:13.999Z,22.69
2018-08-13T20:59:43.227Z,22.71
2018-08-13T21:02:10.996Z,22.69
2018-08-13T21:04:39.771Z,22.61
2018-08-13T21:07:08.510Z,22.62
2018-08-13T21:09:43.137Z,22.57
2018-08-13T21:12:17.416Z,22.57
2018-08-13T21:14:54.168Z,22.63
2018-08-13T21:17:27.180Z,22.64
2018-08-13T21:20:00.471Z,22.55
2018-08-13T21:22:34.167Z,22.65
2018-08-13T21:25:13.720Z,22.62
2018-08-13T21:27:47.828Z,22.56
2018-08-13T21:30:33.599Z,22.55
2018-08-13T21:33:11.186Z,22.53
2018-08-13T21:35:57.933Z,22.51
2018-08-13T21:38:38.594Z,22.49
2018-08-13T21:41:32.676Z,22.44
2018-08-13T21:44:09.356Z,22.51
2018-08-13T21:46:43.780Z,22.46
2018-08-13T21:49:21.572Z,22.45
2018-08-13T21:51:58.558Z,22.39
2018-08-13T21:54:35.129Z,22.28
2018-08-13T21:57:09.750Z,22.34
2018-08-13T21:59:46.118Z,22.36
2018-08-13T22:02:30.270Z,22.34
2018-08-13T22:05:09.502Z,22.32
2018-08-13T22:07:45.258Z,22.34
2018-08-13T22:10:21.519Z,22.39
2018-08-13T22:12:58.057Z,22.34
2018-08-13T22:15:32.683Z,22.28
2018-08-13T22:18:15.193Z,22.25
2018-08-13T22:20:49.444Z,22.25
2018-08-13T22:23:22.758Z,22.21
2018-08-13T22:25:56.748Z,22.28
2018-08-13T22:28:30.556Z,22.32
2018-08-13T22:31:02.604Z,22.31
2018-08-13T22:33:41.650Z,22.42
2018-08-13T22:36:14.835Z,22.35
2018-08-13T22:38:47.011Z,22.33
2018-08-13T22:41:18.664Z,22.27
2018-08-13T22:43:53.805Z,22.31
2018-08-13T22:46:27.100Z,22.31
2018-08-13T22:49:11.249Z,22.29
2018-08-13T22:51:47.310Z,22.26
2018-08-13T22:54:22.139Z,22.24
2018-08-13T22:56:58.301Z,22.21
2018-08-13T22:59:45.523Z,22.17
2018-08-13T23:02:17.164Z,22.16
2018-08-13T23:04:51.498Z,22.13
2018-08-13T23:07:24.998Z,22.02
2018-08-13T23:09:57.678Z,22.02
2018-08-13T23:12:28.720Z,21.98
2018-08-13T23:15:03.659Z,21.98
2018-08-13T23:17:35.720Z,22.01
2018-08-13T23:20:13.623Z,21.94
2018-08-13T23:23:08.378Z,21.87
2018-08-13T23:25:39.795Z,21.87
2018-08-13T23:28:15.935Z,21.80
2018-08-13T23:30:51.404Z,21.75
2018-08-13T23:33:27.731Z,21.75
2018-08-13T23:35:59.796Z,21.67
2018-08-13T23:38:41.375Z,21.72
2018-08-13T23:41:14.313Z,21.73
2018-08-13T23:43:47.507Z,21.67
2018-08-13T23:46:21.662Z,21.67
2018-08-13T23:48:49.523Z,21.70
2018-08-13T23:51:17.258Z,21.77
2018-08-13T23:53:44.970Z,21.79
2018-08-13T23:56:12.801Z,21.88
2018-08-13T23:58:40.498Z,21.85
